createdAt,value
2023-05-17T00:03:34.734Z,97494.72
2023-05-17T00:07:38.113Z,97491.66
2023-05-17T00:11:41.559Z,97489.22
2023-05-17T00:15:45.996Z,97495.59
2023-05-17T00:19:49.215Z,97501.97
2023-05-17T00:23:52.502Z,97491.59
2023-05-17T00:27:56.107Z,97508.69
2023-05-17T00:32:00.643Z,97504.81
2023-05-17T00:36:04.156Z,97511.81
2023-05-17T00:40:08.487Z,97517.38
2023-05-17T00:44:11.896Z,97523.94
2023-05-17T00:48:17.105Z,97526.88
2023-05-17T00:52:20.723Z,97527.22
2023-05-17T00:56:25.736Z,97528.38
2023-05-17T01:00:29.467Z,97539.16
2023-05-17T01:04:34.724Z,97539.44
2023-05-17T01:08:38.346Z,97541.44
2023-05-17T01:12:57.723Z,97552.22
2023-05-17T01:17:04.350Z,97555.97
2023-05-17T01:21:19.142Z,97558.09
2023-05-17T01:25:40.971Z,97569.69
2023-05-17T01:29:46.438Z,97561.53
2023-05-17T01:33:49.628Z,97567.25
2023-05-17T01:37:54.108Z,97572.00
2023-05-17T01:42:05.077Z,97575.28
2023-05-17T01:46:15.672Z,97587.03
2023-05-17T01:50:23.337Z,97585.72
2023-05-17T01:54:34.064Z,97593.88
2023-05-17T01:58:46.698Z,97599.44
2023-05-17T02:02:51.513Z,97614.41
2023-05-17T02:06:54.526Z,97609.69
2023-05-17T02:10:57.988Z,97613.44
2023-05-17T02:15:01.045Z,97621.59
2023-05-17T02:19:06.040Z,97610.53
2023-05-17T02:23:09.207Z,97622.22
2023-05-17T02:27:12.518Z,97635.63
2023-05-17T02:31:15.795Z,97630.72
2023-05-17T02:35:20.902Z,97641.47
2023-05-17T02:39:24.424Z,97639.03
2023-05-17T02:43:27.879Z,97644.41
2023-05-17T02:47:31.107Z,97643.09
2023-05-17T02:51:36.038Z,97645.03
2023-05-17T02:55:39.276Z,97645.38
2023-05-17T02:59:42.392Z,97657.09
2023-05-17T03:03:45.564Z,97665.22
2023-05-17T03:07:50.330Z,97667.16
2023-05-17T03:11:53.443Z,97674.34
2023-05-17T03:15:56.811Z,97668.63
2023-05-17T03:19:59.807Z,97679.88
2023-05-17T03:24:04.732Z,97680.69
2023-05-17T03:28:07.958Z,97681.81
2023-05-17T03:32:11.604Z,97680.19
2023-05-17T03:36:14.972Z,97688.31
2023-05-17T03:40:19.886Z,97684.09
2023-05-17T03:44:22.805Z,97686.84
2023-05-17T03:48:26.276Z,97697.13
2023-05-17T03:52:29.458Z,97717.66
2023-05-17T03:56:34.724Z,97708.19
2023-05-17T04:00:38.080Z,97716.66
2023-05-17T04:04:41.427Z,97730.38
2023-05-17T04:08:44.614Z,97741.28
2023-05-17T04:12:50.404Z,97745.34
2023-05-17T04:16:53.467Z,97754.81
2023-05-17T04:20:57.460Z,97753.81
2023-05-17T04:25:00.482Z,97763.94
2023-05-17T04:29:05.402Z,97772.44
2023-05-17T04:33:10.500Z,97781.88
2023-05-17T04:37:15.333Z,97780.88
2023-05-17T04:41:18.491Z,97786.75
2023-05-17T04:45:24.048Z,97784.81
2023-05-17T04:49:27.124Z,97787.41
2023-05-17T04:53:30.897Z,97787.41
2023-05-17T04:57:34.091Z,97791.66
2023-05-17T05:01:38.934Z,97796.88
2023-05-17T05:05:41.882Z,97802.72
2023-05-17T05:09:45.409Z,97812.34
2023-05-17T05:13:48.343Z,97812.34
2023-05-17T05:17:53.368Z,97832.06
2023-05-17T05:21:56.558Z,97842.50
2023-05-17T05:26:00.429Z,97846.88
2023-05-17T05:30:04.323Z,97858.97
2023-05-17T05:34:08.897Z,97867.59
2023-05-17T05:38:11.989Z,97875.41
2023-05-17T05:42:15.455Z,97877.03
2023-05-17T05:46:18.707Z,97898.72
2023-05-17T05:50:23.754Z,97903.09
2023-05-17T05:54:27.217Z,97904.38
2023-05-17T05:58:30.888Z,97915.13
2023-05-17T06:02:35.310Z,97917.22
2023-05-17T06:06:40.136Z,97912.47
2023-05-17T06:10:43.577Z,97929.41
2023-05-17T06:14:46.847Z,97926.44
2023-05-17T06:18:51.623Z,97935.38
2023-05-17T06:22:56.638Z,97948.69
2023-05-17T06:27:00.561Z,97943.00
2023-05-17T06:31:07.112Z,97946.56
2023-05-17T06:35:11.955Z,97953.72
2023-05-17T06:39:16.765Z,97955.34
2023-05-17T06:43:20.058Z,97951.91
2023-05-17T06:47:25.044Z,97963.16
2023-05-17T06:51:30.397Z,97967.53
2023-05-17T06:55:35.295Z,97971.97
2023-05-17T06:59:38.962Z,97972.25
2023-05-17T07:03:42.578Z,97978.75
2023-05-17T07:07:46.029Z,97990.78
2023-05-17T07:11:50.769Z,97997.63
2023-05-17T07:15:54.937Z,98013.25
2023-05-17T07:19:58.480Z,98010.34
2023-05-17T07:24:01.719Z,98017.88
2023-05-17T07:28:06.878Z,98019.19
2023-05-17T07:32:10.592Z,98032.91
2023-05-17T07:36:14.419Z,98036.16
2023-05-17T07:40:18.289Z,98032.47
2023-05-17T07:44:23.071Z,98035.88
2023-05-17T07:48:27.133Z,98033.63
2023-05-17T07:52:30.661Z,98037.88
2023-05-17T07:56:34.104Z,98037.72
2023-05-17T08:00:38.557Z,98043.22
2023-05-17T08:04:42.295Z,98039.94
2023-05-17T08:08:46.137Z,98041.06
2023-05-17T08:12:49.434Z,98039.75
2023-05-17T08:16:54.275Z,98040.88
2023-05-17T08:20:57.784Z,98042.94
2023-05-17T08:25:01.175Z,98044.22
2023-05-17T08:29:04.892Z,98052.72
2023-05-17T08:33:11.999Z,98059.91
2023-05-17T08:37:15.255Z,98060.88
2023-05-17T08:41:18.598Z,98065.13
2023-05-17T08:45:22.755Z,98077.84
2023-05-17T08:49:33.534Z,98079.22
2023-05-17T08:53:37.159Z,98079.88
2023-05-17T08:57:40.948Z,98074.22
2023-05-17T09:01:46.505Z,98068.84
2023-05-17T09:05:53.097Z,98076.38
2023-05-17T09:09:56.787Z,98078.38
2023-05-17T09:14:01.871Z,98080.06
2023-05-17T09:18:05.338Z,98075.25
2023-05-17T09:22:10.387Z,98084.03
2023-05-17T09:26:16.352Z,98086.75
2023-05-17T09:30:19.585Z,98081.72
2023-05-17T09:34:24.087Z,98089.56
2023-05-17T09:38:28.936Z,98082.69
2023-05-17T09:42:34.722Z,98084.53
2023-05-17T09:46:39.916Z,98092.38
2023-05-17T09:50:47.825Z,98079.84
2023-05-17T09:55:07.459Z,98083.78
2023-05-17T09:59:14.006Z,98081.53
2023-05-17T10:03:18.826Z,98079.78
2023-05-17T10:07:22.652Z,98086.00
2023-05-17T10:11:34.714Z,98077.69
2023-05-17T10:15:39.256Z,98086.34
2023-05-17T10:19:43.059Z,98085.88
2023-05-17T10:23:48.035Z,98090.59
2023-05-17T10:27:53.491Z,98093.53
2023-05-17T10:31:58.337Z,98095.47
2023-05-17T10:36:03.703Z,98096.25
2023-05-17T10:40:13.687Z,98097.03
2023-05-17T10:44:19.242Z,98102.28
2023-05-17T10:48:24.107Z,98106.66
2023-05-17T10:52:27.666Z,98092.75
2023-05-17T10:56:31.997Z,98086.59
2023-05-17T11:00:41.205Z,98095.13
2023-05-17T11:04:46.380Z,98097.91
2023-05-17T11:09:15.506Z,98100.69
2023-05-17T11:13:28.251Z,98095.47
2023-05-17T11:17:50.027Z,98085.53
2023-05-17T11:21:53.643Z,98084.72
2023-05-17T11:26:02.908Z,98084.06
2023-05-17T11:30:11.514Z,98086.03
2023-05-17T11:34:19.533Z,98074.44
2023-05-17T11:38:26.369Z,98070.97
2023-05-17T11:42:29.652Z,98080.78
2023-05-17T11:46:36.099Z,98081.78
2023-05-17T11:50:41.299Z,98085.03
2023-05-17T11:54:45.202Z,98080.34
2023-05-17T11:58:53.048Z,98093.75
2023-05-17T12:02:58.168Z,98092.63
2023-05-17T12:07:03.135Z,98102.59
2023-05-17T12:11:07.668Z,98097.50
2023-05-17T12:15:14.660Z,98090.97
2023-05-17T12:19:22.726Z,98099.13
2023-05-17T12:23:33.824Z,98107.94
2023-05-17T12:27:37.733Z,98102.66
2023-05-17T12:31:43.382Z,98095.94
2023-05-17T12:35:48.730Z,98087.56
2023-05-17T12:39:53.277Z,98080.03
2023-05-17T12:44:13.646Z,98073.63
2023-05-17T12:48:19.509Z,98080.81
2023-05-17T12:52:24.355Z,98077.97
2023-05-17T12:56:30.981Z,98081.09
2023-05-17T13:00:34.735Z,98068.44
2023-05-17T13:04:38.924Z,98076.47
2023-05-17T13:08:44.149Z,98078.78
2023-05-17T13:12:57.895Z,98070.41
2023-05-17T13:17:01.669Z,98082.16
2023-05-17T13:21:04.725Z,98076.59
2023-05-17T13:25:08.238Z,98081.16
2023-05-17T13:29:15.452Z,98078.53
2023-05-17T13:33:19.072Z,98070.09
2023-05-17T13:37:22.452Z,98073.00
2023-05-17T13:41:25.540Z,98081.22
2023-05-17T13:45:30.192Z,98081.84
2023-05-17T13:49:33.526Z,98086.13
2023-05-17T13:53:39.137Z,98088.75
2023-05-17T13:57:42.946Z,98081.84
2023-05-17T14:01:47.884Z,98087.41
2023-05-17T14:05:53.344Z,98091.47
2023-05-17T14:09:56.951Z,98098.31
2023-05-17T14:14:01.721Z,98106.78
2023-05-17T14:18:07.930Z,98104.78
2023-05-17T14:22:11.858Z,98102.38
2023-05-17T14:26:14.805Z,98105.00
2023-05-17T14:30:18.219Z,98119.13
2023-05-17T14:34:22.869Z,98118.84
2023-05-17T14:38:35.936Z,98114.28
2023-05-17T14:42:41.901Z,98121.22
2023-05-17T14:46:45.362Z,98123.53
2023-05-17T14:50:49.664Z,98113.94
2023-05-17T14:54:53.668Z,98119.03
2023-05-17T14:58:57.905Z,98113.97
2023-05-17T15:03:01.827Z,98113.50
2023-05-17T15:07:07.697Z,98116.81
2023-05-17T15:11:11.362Z,98116.78
2023-05-17T15:15:14.927Z,98121.38
2023-05-17T15:19:18.822Z,98118.28
2023-05-17T15:23:23.460Z,98115.66
2023-05-17T15:27:35.880Z,98122.50
2023-05-17T15:31:39.397Z,98126.56
2023-05-17T15:35:44.430Z,98134.06
2023-05-17T15:39:49.298Z,98133.44
2023-05-17T15:43:54.030Z,98126.22
2023-05-17T15:47:57.573Z,98122.47
2023-05-17T15:52:00.999Z,98129.81
2023-05-17T15:56:06.664Z,98124.72
2023-05-17T16:00:11.528Z,98131.78
2023-05-17T16:04:15.077Z,98132.94
2023-05-17T16:08:20.730Z,98136.19
2023-05-17T16:12:28.706Z,98142.91
2023-05-17T16:16:32.674Z,98137.84
2023-05-17T16:20:35.792Z,98148.94
2023-05-17T16:24:39.254Z,98143.06
2023-05-17T16:28:44.293Z,98147.47
2023-05-17T16:32:48.468Z,98158.25
2023-05-17T16:36:51.671Z,98163.00
2023-05-17T16:40:55.282Z,98160.03
2023-05-17T16:45:00.373Z,98165.09
2023-05-17T16:49:07.596Z,98163.41
2023-05-17T16:53:10.909Z,98174.66
2023-05-17T16:57:15.025Z,98171.72
2023-05-17T17:01:21.544Z,98173.47
2023-05-17T17:05:24.978Z,98170.50
2023-05-17T17:09:30.137Z,98171.28
2023-05-17T17:13:33.572Z,98179.59
2023-05-17T17:17:39.461Z,98180.38
2023-05-17T17:21:44.057Z,98182.91
2023-05-17T17:25:48.622Z,98189.28
2023-05-17T17:29:52.413Z,98202.00
2023-05-17T17:33:58.400Z,98195.41
2023-05-17T17:38:03.481Z,98196.69
2023-05-17T17:42:07.388Z,98205.09
2023-05-17T17:46:11.035Z,98206.38
2023-05-17T17:50:16.676Z,98207.81
2023-05-17T17:54:20.272Z,98215.47
2023-05-17T17:58:29.116Z,98228.13
2023-05-17T18:02:32.555Z,98230.38
2023-05-17T18:06:37.744Z,98229.84
2023-05-17T18:10:42.436Z,98243.63
2023-05-17T18:14:46.744Z,98244.75
2023-05-17T18:18:50.228Z,98253.84
2023-05-17T18:22:55.111Z,98257.88
2023-05-17T18:26:58.637Z,98266.28
2023-05-17T18:31:01.657Z,98263.00
2023-05-17T18:35:05.437Z,98266.88
2023-05-17T18:39:12.422Z,98268.66
2023-05-17T18:43:16.250Z,98272.38
2023-05-17T18:47:20.168Z,98275.97
2023-05-17T18:51:23.520Z,98290.78
2023-05-17T18:55:28.651Z,98308.38
2023-05-17T18:59:32.030Z,98325.94
2023-05-17T19:03:35.879Z,98316.63
2023-05-17T19:07:44.647Z,98326.53
2023-05-17T19:11:50.030Z,98324.88
2023-05-17T19:15:55.113Z,98332.03
2023-05-17T19:19:58.071Z,98331.50
2023-05-17T19:24:02.453Z,98335.38
2023-05-17T19:28:07.410Z,98341.66
2023-05-17T19:32:10.803Z,98339.50
2023-05-17T19:36:15.953Z,98344.34
2023-05-17T19:40:24.060Z,98336.81
2023-05-17T19:44:28.602Z,98336.09
2023-05-17T19:48:32.144Z,98338.06
2023-05-17T19:52:37.517Z,98339.31
2023-05-17T19:56:42.089Z,98342.84
2023-05-17T20:00:46.633Z,98334.38
2023-05-17T20:04:49.805Z,98338.91
2023-05-17T20:08:53.074Z,98335.78
2023-05-17T20:12:56.548Z,98336.88
2023-05-17T20:17:01.825Z,98337.84
2023-05-17T20:21:05.323Z,98338.25
2023-05-17T20:25:10.299Z,98344.56
2023-05-17T20:29:13.953Z,98350.06
2023-05-17T20:33:22.631Z,98352.94
2023-05-17T20:37:26.529Z,98357.75
2023-05-17T20:41:29.909Z,98356.78
2023-05-17T20:45:34.433Z,98359.78
2023-05-17T20:49:39.258Z,98365.69
2023-05-17T20:53:43.042Z,98366.53
2023-05-17T20:57:47.118Z,98365.41
2023-05-17T21:01:52.843Z,98363.66
2023-05-17T21:05:58.150Z,98355.69
2023-05-17T21:10:01.369Z,98353.09
2023-05-17T21:14:04.473Z,98353.09
2023-05-17T21:18:08.569Z,98343.59
2023-05-17T21:22:13.297Z,98339.38
2023-05-17T21:26:17.062Z,98341.28
2023-05-17T21:30:20.871Z,98339.66
2023-05-17T21:34:25.648Z,98343.22
2023-05-17T21:38:31.573Z,98332.81
2023-05-17T21:42:35.344Z,98338.00
2023-05-17T21:46:38.549Z,98344.03
2023-05-17T21:50:41.719Z,98344.72
2023-05-17T21:54:46.743Z,98343.75
2023-05-17T21:58:50.156Z,98346.50
2023-05-17T22:02:53.576Z,98347.47
2023-05-17T22:06:57.735Z,98348.16
2023-05-17T22:11:02.513Z,98341.00
2023-05-17T22:15:07.700Z,98347.03
2023-05-17T22:19:11.300Z,98348.69
2023-05-17T22:23:15.984Z,98342.66
2023-05-17T22:27:21.111Z,98345.41
2023-05-17T22:31:25.303Z,98339.66
2023-05-17T22:35:28.566Z,98340.47
2023-05-17T22:39:33.303Z,98340.47
2023-05-17T22:43:38.266Z,98336.22
2023-05-17T22:47:42.898Z,98342.41
2023-05-17T22:51:47.088Z,98338.00
2023-05-17T22:55:50.796Z,98337.31
2023-05-17T22:59:55.868Z,98340.75
2023-05-17T23:03:59.096Z,98330.34
2023-05-17T23:08:02.500Z,98339.94
2023-05-17T23:12:07.175Z,98321.81
2023-05-17T23:16:14.190Z,98327.00
2023-05-17T23:20:18.229Z,98326.22
2023-05-17T23:24:23.532Z,98317.72
2023-05-17T23:28:27.106Z,98318.41
2023-05-17T23:32:34.417Z,98307.16
2023-05-17T23:36:37.922Z,98300.88
2023-05-17T23:44:57.566Z,98298.81
2023-05-17T23:49:04.599Z,98295.22
2023-05-17T23:53:09.937Z,98293.47
2023-05-17T23:57:13.632Z,98296.06
